Silver Lake, Nebraska
Current Conditions -  °F | °C
As of 3:53 AM on Sunday 21 Dec 2014 (Local Time) from KHSI Reporting Station
Haze Haze  
Wind Chill: 26°   Ceiling: Unl
Heat Index: 32°   Visibility: 5mi
Dew Point: 30°   Wind: 7mph
Humidity: 92%   Direction: 200°SSW
Pressure: 29.87"   Gusts: NA
Location:  40.436°N, 98.5528°W
Report Text: KHSI 210953Z AUTO 20006KT 5SM BR CLR 00/M01 A2987 RMK AO2 SLP127 T00001011
Loading
Personal Weather Stations






























Interactive Weather Map New forecast layout! Learn more

10-Day Weather Forecast

Advertisements
Track Severe Weather on mobile